Time;durP1;ratioP1;P1;durP2;ratioP2;P2;SDS_P1;SDS_P2;PMS_P1;PMS_P2;Temp;Humidity;BMP_temperature;BMP_pressure;BME280_temperature;BME280_humidity;BME280_pressure;Samples;Min_cycle;Max_cycle;Signal;HPM_P1;HPM_P2
2023/11/06 00:01:55;;;;;;;11.43;1.83;;;10.50;99.90;;;;;;5057637;28;20083;-76
2023/11/06 00:04:22;;;;;;;4.22;1.70;;;10.50;99.90;;;;;;5057230;28;20086;-76
2023/11/06 00:06:47;;;;;;;7.43;2.00;;;10.50;99.90;;;;;;5057334;28;20451;-77
2023/11/06 00:09:13;;;;;;;9.75;1.75;;;10.50;99.90;;;;;;5056962;28;20031;-76
2023/11/06 00:11:40;;;;;;;9.30;2.40;;;10.50;99.90;;;;;;5057823;28;20520;-76
2023/11/06 00:14:06;;;;;;;8.05;1.92;;;10.60;99.90;;;;;;5057129;28;20033;-76
2023/11/06 00:16:32;;;;;;;6.43;2.20;;;10.50;99.90;;;;;;5057796;28;20040;-76
2023/11/06 00:18:57;;;;;;;8.85;2.00;;;10.50;99.90;;;;;;5057341;28;20052;-76
2023/11/06 00:21:23;;;;;;;7.25;1.77;;;10.50;99.90;;;;;;5057148;28;20419;-76
2023/11/06 00:23:48;;;;;;;8.45;2.00;;;10.60;99.90;;;;;;5056862;28;20044;-76
2023/11/06 00:26:14;;;;;;;12.95;2.65;;;10.60;99.90;;;;;;5057579;28;20463;-76
2023/11/06 00:28:40;;;;;;;10.07;2.13;;;10.60;99.90;;;;;;5056423;28;20024;-77
2023/11/06 00:31:06;;;;;;;16.80;2.38;;;10.60;99.90;;;;;;5056660;28;20471;-75
2023/11/06 00:33:31;;;;;;;6.65;1.50;;;10.60;99.90;;;;;;5056800;28;20068;-77
2023/11/06 00:35:57;;;;;;;8.57;2.10;;;10.60;99.90;;;;;;5056718;28;20029;-77
2023/11/06 00:38:23;;;;;;;5.93;2.00;;;10.60;99.90;;;;;;5056837;28;20028;-78
2023/11/06 00:40:49;;;;;;;9.70;2.20;;;10.60;99.90;;;;;;5056311;28;20379;-76
2023/11/06 00:43:15;;;;;;;7.70;1.90;;;10.60;99.90;;;;;;5056764;28;20021;-77
2023/11/06 00:45:41;;;;;;;6.20;1.83;;;10.60;99.90;;;;;;5056760;28;20133;-77
2023/11/06 00:48:06;;;;;;;8.40;2.42;;;10.60;99.90;;;;;;5056449;28;20029;-77
2023/11/06 00:50:32;;;;;;;6.90;1.88;;;10.60;99.90;;;;;;5056506;28;20119;-76
2023/11/06 00:52:58;;;;;;;9.55;2.25;;;10.70;99.90;;;;;;5056238;28;20112;-76
2023/11/06 00:55:25;;;;;;;6.95;1.98;;;10.60;99.90;;;;;;5055901;28;20084;-76
2023/11/06 00:57:52;;;;;;;7.28;2.17;;;10.60;99.90;;;;;;5056198;28;20074;-77
2023/11/06 01:00:21;;;;;;;6.97;2.22;;;10.60;99.90;;;;;;5056767;28;20463;-76
2023/11/06 01:02:46;;;;;;;8.07;1.80;;;10.80;99.90;;;;;;5056209;28;20025;-76
2023/11/06 01:05:12;;;;;;;7.75;1.80;;;10.60;99.90;;;;;;5055805;28;20039;-76
2023/11/06 01:07:38;;;;;;;9.90;2.40;;;10.60;99.90;;;;;;5055327;28;20024;-76
2023/11/06 01:10:04;;;;;;;9.88;2.53;;;10.70;99.90;;;;;;5056026;28;20483;-76
2023/11/06 01:12:29;;;;;;;10.20;2.10;;;10.70;99.90;;;;;;5055394;28;20029;-77
2023/11/06 01:14:55;;;;;;;6.82;1.73;;;10.70;99.90;;;;;;5056427;28;20060;-76
2023/11/06 01:17:21;;;;;;;8.05;1.92;;;10.70;99.90;;;;;;5056296;28;20025;-76
2023/11/06 01:19:46;;;;;;;13.23;2.75;;;10.70;99.90;;;;;;5056038;28;20439;-77
2023/11/06 01:22:12;;;;;;;8.05;2.03;;;10.70;99.90;;;;;;5056197;28;20033;-77
2023/11/06 01:24:39;;;;;;;10.02;1.90;;;10.70;99.90;;;;;;5055241;28;20025;-76
2023/11/06 01:27:04;;;;;;;9.73;2.42;;;10.60;99.90;;;;;;5055840;28;20426;-76
2023/11/06 01:29:30;;;;;;;9.18;2.30;;;10.70;99.90;;;;;;5055886;28;20041;-76
2023/11/06 01:31:56;;;;;;;7.90;2.28;;;10.70;99.90;;;;;;5055772;28;20036;-76
2023/11/06 01:34:21;;;;;;;8.10;2.10;;;10.70;99.90;;;;;;5056006;28;20064;-76
2023/11/06 01:36:47;;;;;;;11.07;1.92;;;10.70;99.90;;;;;;5056139;28;20033;-77
2023/11/06 01:39:13;;;;;;;6.53;2.25;;;10.60;99.90;;;;;;5055464;28;20025;-77
2023/11/06 01:41:39;;;;;;;7.03;1.73;;;10.60;99.90;;;;;;5055047;28;20029;-77
2023/11/06 01:44:06;;;;;;;9.98;2.65;;;10.70;99.90;;;;;;5055778;28;20033;-77
2023/11/06 01:46:32;;;;;;;9.05;2.47;;;10.70;99.90;;;;;;5054548;28;20021;-77
2023/11/06 01:49:00;;;;;;;9.80;2.47;;;10.80;99.90;;;;;;5055187;28;20029;-76
2023/11/06 01:51:27;;;;;;;9.07;2.40;;;10.70;99.90;;;;;;5055633;28;20033;-76
2023/11/06 01:53:55;;;;;;;8.05;2.00;;;10.70;99.90;;;;;;5055763;28;20426;-76
2023/11/06 01:56:21;;;;;;;14.95;2.83;;;10.70;99.90;;;;;;5054477;28;20406;-77
2023/11/06 01:58:46;;;;;;;10.93;2.30;;;10.70;99.90;;;;;;5054871;28;20115;-77
2023/11/06 02:01:12;;;;;;;10.75;2.42;;;10.70;99.90;;;;;;5055106;28;20029;-77
2023/11/06 02:03:39;;;;;;;8.88;2.05;;;10.70;99.90;;;;;;5054864;28;20486;-77
2023/11/06 02:06:06;;;;;;;7.18;1.80;;;10.60;99.90;;;;;;5054735;28;20095;-76
2023/11/06 02:08:32;;;;;;;5.63;1.77;;;10.70;99.90;;;;;;5054636;28;20025;-77
2023/11/06 02:11:01;;;;;;;9.00;2.25;;;10.70;99.90;;;;;;5055147;28;20119;-76
2023/11/06 02:13:27;;;;;;;8.40;2.38;;;10.60;99.90;;;;;;5054909;28;20379;-77
2023/11/06 02:15:53;;;;;;;9.65;2.15;;;10.60;99.90;;;;;;5054692;28;20029;-77
2023/11/06 02:18:20;;;;;;;7.78;2.40;;;10.50;99.90;;;;;;5054135;28;20025;-76
2023/11/06 02:20:47;;;;;;;11.30;2.13;;;10.30;99.90;;;;;;5054688;28;20025;-77
2023/11/06 02:23:12;;;;;;;6.90;2.00;;;10.20;99.90;;;;;;5053812;28;20032;-77
2023/11/06 02:25:38;;;;;;;9.48;2.00;;;10.20;99.90;;;;;;5054483;28;20025;-76
2023/11/06 02:28:04;;;;;;;13.02;2.00;;;10.20;99.90;;;;;;5054825;28;20470;-77
2023/11/06 02:30:30;;;;;;;7.57;2.30;;;10.20;99.90;;;;;;5054318;28;20036;-75
2023/11/06 02:32:55;;;;;;;7.60;2.13;;;10.20;99.90;;;;;;5055100;28;20040;-77
2023/11/06 02:35:21;;;;;;;10.30;2.35;;;10.20;99.90;;;;;;5053940;28;20032;-77
2023/11/06 02:37:46;;;;;;;8.63;2.03;;;10.20;99.90;;;;;;5054990;28;20060;-77
2023/11/06 02:40:12;;;;;;;8.95;2.20;;;10.30;99.90;;;;;;5054648;28;20079;-76
2023/11/06 02:42:38;;;;;;;9.40;2.38;;;10.30;99.90;;;;;;5053964;28;20021;-77
2023/11/06 02:45:04;;;;;;;7.68;2.22;;;10.30;99.90;;;;;;5054861;28;20025;-76
2023/11/06 02:47:30;;;;;;;8.07;1.75;;;10.20;99.90;;;;;;5055255;28;20501;-76
2023/11/06 02:49:56;;;;;;;7.18;2.08;;;10.30;99.90;;;;;;5054713;28;20383;-76
2023/11/06 02:52:21;;;;;;;13.45;2.10;;;10.30;99.90;;;;;;5054886;28;20044;-77
2023/11/06 02:54:47;;;;;;;11.15;2.05;;;10.30;99.90;;;;;;5054417;28;20557;-76
2023/11/06 02:57:12;;;;;;;7.30;2.10;;;10.30;99.90;;;;;;5055536;28;20037;-77
2023/11/06 02:59:38;;;;;;;9.52;2.22;;;10.30;99.90;;;;;;5054720;28;20016;-76
2023/11/06 03:02:04;;;;;;;7.53;1.92;;;10.40;99.90;;;;;;5055679;28;20060;-77
2023/11/06 03:04:31;;;;;;;10.23;1.70;;;10.40;99.90;;;;;;5059298;28;20028;-77
2023/11/06 03:06:57;;;;;;;6.93;1.80;;;10.40;99.90;;;;;;5058529;28;20075;-77
2023/11/06 03:09:23;;;;;;;6.65;1.80;;;10.40;99.90;;;;;;5057387;28;20033;-77
2023/11/06 03:11:48;;;;;;;4.68;1.90;;;10.50;99.90;;;;;;5056176;28;20112;-77
2023/11/06 03:14:14;;;;;;;5.22;1.55;;;10.50;99.90;;;;;;5056746;28;20112;-77
2023/11/06 03:16:39;;;;;;;7.75;2.00;;;10.50;99.90;;;;;;5056996;28;20135;-77
2023/11/06 03:19:05;;;;;;;7.40;1.98;;;10.50;99.90;;;;;;5057457;28;20029;-77
2023/11/06 03:21:31;;;;;;;5.88;1.63;;;10.50;99.90;;;;;;5057332;28;20021;-77
2023/11/06 03:23:57;;;;;;;4.50;1.67;;;10.50;99.90;;;;;;5056319;28;20078;-77
2023/11/06 03:26:22;;;;;;;10.23;2.30;;;10.50;99.90;;;;;;5055882;28;20036;-76
2023/11/06 03:28:48;;;;;;;14.68;2.45;;;10.50;99.90;;;;;;5056645;28;20036;-78
2023/11/06 03:31:14;;;;;;;7.82;1.48;;;10.50;99.90;;;;;;5058763;28;20486;-77
2023/11/06 03:33:40;;;;;;;6.55;1.65;;;10.50;99.90;;;;;;5058279;28;20029;-77
2023/11/06 03:36:07;;;;;;;8.32;1.73;;;10.40;99.90;;;;;;5058549;28;20028;-77
2023/11/06 03:38:33;;;;;;;5.35;1.85;;;10.40;99.90;;;;;;5059161;28;20123;-77
2023/11/06 03:40:59;;;;;;;6.78;1.70;;;10.40;99.90;;;;;;5058849;28;20083;-77
2023/11/06 03:43:24;;;;;;;8.00;1.77;;;10.40;99.90;;;;;;5058003;28;20429;-77
2023/11/06 03:45:50;;;;;;;5.32;1.60;;;10.40;99.90;;;;;;5058781;28;20051;-77
2023/11/06 03:48:16;;;;;;;6.55;1.70;;;10.40;99.90;;;;;;5058244;28;20037;-77
2023/11/06 03:50:43;;;;;;;5.43;1.65;;;10.40;99.90;;;;;;5057977;28;20033;-76
2023/11/06 03:53:10;;;;;;;6.38;1.77;;;10.40;99.90;;;;;;5057944;28;20032;-77
2023/11/06 03:55:36;;;;;;;7.00;2.20;;;10.40;99.90;;;;;;5057421;28;20546;-76
2023/11/06 03:58:02;;;;;;;10.70;1.73;;;10.40;99.90;;;;;;5056761;28;20067;-77
2023/11/06 04:00:27;;;;;;;6.90;1.83;;;10.40;99.90;;;;;;5057671;28;20025;-77
2023/11/06 04:02:53;;;;;;;5.00;1.83;;;10.40;99.90;;;;;;5056807;28;20505;-77
2023/11/06 04:05:18;;;;;;;5.78;1.65;;;10.40;99.90;;;;;;5057353;28;20074;-77
2023/11/06 04:07:44;;;;;;;6.13;1.95;;;10.40;99.90;;;;;;5057618;28;20033;-77
2023/11/06 04:10:10;;;;;;;8.65;2.00;;;10.40;99.90;;;;;;5057547;28;20039;-77
2023/11/06 04:12:37;;;;;;;6.28;1.90;;;10.40;99.90;;;;;;5057203;28;20017;-77
2023/11/06 04:15:05;;;;;;;5.70;2.17;;;10.40;99.90;;;;;;5056560;28;20033;-77
2023/11/06 04:17:31;;;;;;;8.30;1.77;;;10.40;99.90;;;;;;5056513;28;20087;-77
2023/11/06 04:19:57;;;;;;;9.07;2.10;;;10.40;99.90;;;;;;5056818;28;20063;-77
2023/11/06 04:22:23;;;;;;;8.32;1.80;;;10.40;99.90;;;;;;5057235;28;20028;-77
2023/11/06 04:24:48;;;;;;;4.72;1.45;;;10.50;99.90;;;;;;5056483;28;20052;-76
2023/11/06 04:27:14;;;;;;;4.43;1.63;;;10.40;99.90;;;;;;5056902;28;20037;-76
2023/11/06 04:29:40;;;;;;;7.00;2.00;;;10.40;99.90;;;;;;5056408;28;20021;-76
2023/11/06 04:32:06;;;;;;;5.93;2.10;;;10.50;99.90;;;;;;5057262;28;20036;-77
2023/11/06 04:34:31;;;;;;;6.72;1.77;;;10.50;99.90;;;;;;5057241;28;20035;-77
2023/11/06 04:36:57;;;;;;;6.78;2.05;;;10.50;99.90;;;;;;5056481;28;20013;-77
2023/11/06 04:39:22;;;;;;;4.05;1.83;;;10.50;99.90;;;;;;5056477;28;20521;-76
2023/11/06 04:41:48;;;;;;;7.35;1.67;;;10.50;99.90;;;;;;5056049;28;20027;-77
2023/11/06 04:44:13;;;;;;;9.07;2.00;;;10.50;99.90;;;;;;5056901;28;20025;-76
2023/11/06 04:46:39;;;;;;;7.45;2.15;;;10.50;99.90;;;;;;5056574;28;20025;-77
2023/11/06 04:49:05;;;;;;;9.48;2.53;;;10.50;99.90;;;;;;5055572;28;20535;-76
2023/11/06 04:51:30;;;;;;;7.60;1.73;;;10.50;99.90;;;;;;5056564;28;20040;-77
2023/11/06 04:53:56;;;;;;;5.68;1.92;;;10.50;99.90;;;;;;5056641;28;20048;-76
2023/11/06 04:56:22;;;;;;;5.60;2.13;;;10.50;99.90;;;;;;5055174;28;20396;-77
2023/11/06 04:58:47;;;;;;;6.28;2.33;;;10.50;99.90;;;;;;5056281;28;20021;-76
2023/11/06 05:01:16;;;;;;;7.88;2.40;;;10.50;99.90;;;;;;5056040;28;20449;-76
2023/11/06 05:03:42;;;;;;;5.75;2.28;;;10.40;99.90;;;;;;5056377;28;20029;-76
2023/11/06 05:06:08;;;;;;;5.25;2.28;;;10.40;99.90;;;;;;5055372;28;20113;-77
2023/11/06 05:08:34;;;;;;;5.40;2.10;;;10.40;99.90;;;;;;5056324;28;20032;-77
2023/11/06 05:10:59;;;;;;;8.32;2.10;;;10.40;99.90;;;;;;5056199;28;20065;-77
2023/11/06 05:13:25;;;;;;;6.15;2.10;;;10.40;99.90;;;;;;5056406;28;20477;-76
2023/11/06 05:15:51;;;;;;;8.20;2.20;;;10.40;99.90;;;;;;5056123;28;20529;-76
2023/11/06 05:18:16;;;;;;;8.77;3.00;;;10.30;99.90;;;;;;5055770;28;20439;-76
2023/11/06 05:20:42;;;;;;;7.00;2.10;;;10.30;99.90;;;;;;5056026;28;20077;-76
2023/11/06 05:23:08;;;;;;;8.25;2.10;;;10.20;99.90;;;;;;5055859;28;20047;-76
2023/11/06 05:25:34;;;;;;;9.95;2.05;;;10.10;99.90;;;;;;5055524;28;20489;-76
2023/11/06 05:28:00;;;;;;;10.30;2.20;;;10.10;99.90;;;;;;5055466;28;20025;-75
2023/11/06 05:30:25;;;;;;;6.25;2.65;;;10.10;99.90;;;;;;5055796;28;20497;-76
2023/11/06 05:32:53;;;;;;;9.27;2.05;;;10.10;99.90;;;;;;5055810;28;20032;-76
2023/11/06 05:35:18;;;;;;;7.10;2.15;;;10.10;99.90;;;;;;5055294;28;20027;-76
2023/11/06 05:37:46;;;;;;;4.97;1.92;;;10.10;99.90;;;;;;5055571;28;20028;-77
2023/11/06 05:40:12;;;;;;;10.38;2.47;;;10.00;99.90;;;;;;5055287;28;20106;-76
2023/11/06 05:42:38;;;;;;;3.83;1.77;;;10.00;99.90;;;;;;5055900;28;20376;-76
2023/11/06 05:45:05;;;;;;;6.60;1.92;;;10.00;99.90;;;;;;5055410;28;20031;-77
2023/11/06 05:47:31;;;;;;;8.52;1.80;;;9.90;99.90;;;;;;5055397;28;20036;-77
2023/11/06 05:49:57;;;;;;;8.15;2.35;;;9.90;99.90;;;;;;5055820;28;20021;-76
2023/11/06 05:52:23;;;;;;;6.10;1.70;;;9.90;99.90;;;;;;5055070;28;20060;-76
2023/11/06 05:54:48;;;;;;;10.75;1.73;;;9.90;99.90;;;;;;5055356;28;20096;-76
2023/11/06 05:57:14;;;;;;;8.18;2.05;;;9.90;99.90;;;;;;5054745;28;20035;-77
2023/11/06 05:59:40;;;;;;;8.98;1.77;;;9.80;99.90;;;;;;5054838;28;20028;-76
2023/11/06 06:02:08;;;;;;;10.90;1.88;;;9.80;99.90;;;;;;5055003;28;20029;-76
2023/11/06 06:04:34;;;;;;;5.43;1.70;;;9.70;99.90;;;;;;5055273;28;20025;-77
2023/11/06 06:07:00;;;;;;;8.38;2.47;;;9.70;99.90;;;;;;5055040;28;20033;-77
2023/11/06 06:09:25;;;;;;;5.55;1.85;;;9.70;99.90;;;;;;5055157;28;20174;-77
2023/11/06 06:11:51;;;;;;;10.73;2.20;;;9.70;99.90;;;;;;5054953;28;20029;-77
2023/11/06 06:14:16;;;;;;;5.30;1.90;;;9.70;99.90;;;;;;5054436;28;20470;-77
2023/11/06 06:16:44;;;;;;;7.63;2.05;;;9.80;99.90;;;;;;5055434;28;20043;-77
2023/11/06 06:19:10;;;;;;;7.05;1.85;;;9.70;99.90;;;;;;5054715;28;20029;-76
2023/11/06 06:21:36;;;;;;;10.07;2.25;;;9.70;99.90;;;;;;5054506;28;20021;-77
2023/11/06 06:24:01;;;;;;;5.18;1.70;;;9.70;99.90;;;;;;5054709;28;20040;-76
2023/11/06 06:26:29;;;;;;;7.38;1.80;;;9.70;99.90;;;;;;5055059;28;20017;-77
2023/11/06 06:28:54;;;;;;;8.85;2.00;;;9.80;99.90;;;;;;5054244;28;20059;-77
2023/11/06 06:31:21;;;;;;;6.78;1.80;;;9.70;99.90;;;;;;5055058;28;20029;-77
2023/11/06 06:33:47;;;;;;;7.28;1.88;;;9.70;99.90;;;;;;5054373;28;20091;-77
2023/11/06 06:36:13;;;;;;;13.00;2.42;;;9.80;99.90;;;;;;5054503;28;20037;-77
2023/11/06 06:38:38;;;;;;;6.35;2.05;;;9.80;99.90;;;;;;5054579;28;20021;-77
2023/11/06 06:41:04;;;;;;;9.85;1.70;;;9.80;99.90;;;;;;5054538;28;20455;-77
2023/11/06 06:43:30;;;;;;;8.90;1.80;;;9.90;99.90;;;;;;5054435;28;20051;-77
2023/11/06 06:45:55;;;;;;;10.32;2.38;;;10.00;99.90;;;;;;5054433;28;20021;-77
2023/11/06 06:48:21;;;;;;;10.02;2.95;;;10.10;99.90;;;;;;5054428;28;20464;-77
2023/11/06 06:50:46;;;;;;;9.15;2.25;;;10.00;99.90;;;;;;5054648;28;20029;-77
2023/11/06 06:53:12;;;;;;;8.88;2.30;;;10.10;99.90;;;;;;5053838;28;20036;-76
2023/11/06 06:55:38;;;;;;;13.45;2.75;;;10.10;99.90;;;;;;5053393;28;20099;-76
2023/11/06 06:58:04;;;;;;;12.43;2.30;;;10.10;99.50;;;;;;5053702;28;20044;-77
2023/11/06 07:00:32;;;;;;;6.18;2.30;;;10.20;99.90;;;;;;5054069;28;20316;-76
2023/11/06 07:02:59;;;;;;;10.02;2.28;;;10.20;99.90;;;;;;5053443;28;20112;-77
2023/11/06 07:05:26;;;;;;;18.67;3.40;;;10.20;99.90;;;;;;5052825;28;20021;-77
2023/11/06 07:07:52;;;;;;;7.03;2.22;;;10.30;99.90;;;;;;5054256;28;20372;-77
2023/11/06 07:10:17;;;;;;;18.10;2.88;;;10.30;99.30;;;;;;5054231;28;20025;-79
2023/11/06 07:12:43;;;;;;;10.48;2.65;;;10.30;98.00;;;;;;5054113;28;20025;-79
2023/11/06 07:15:10;;;;;;;15.75;3.53;;;10.40;98.80;;;;;;5054334;28;20471;-78
2023/11/06 07:17:36;;;;;;;12.82;2.80;;;10.50;92.50;;;;;;5053877;28;20036;-78
2023/11/06 07:20:03;;;;;;;9.40;2.67;;;10.50;90.40;;;;;;5054121;28;20379;-77
2023/11/06 07:22:29;;;;;;;15.23;2.85;;;10.70;83.40;;;;;;5053699;28;20467;-78
2023/11/06 07:24:54;;;;;;;17.40;3.05;;;10.80;74.80;;;;;;5054437;28;20028;-79
2023/11/06 07:27:21;;;;;;;11.57;2.72;;;10.90;55.20;;;;;;5054607;28;20370;-81
2023/11/06 07:29:47;;;;;;;14.85;3.20;;;10.70;63.20;;;;;;5053540;28;20022;-78
2023/11/06 07:32:13;;;;;;;18.95;3.63;;;10.70;70.60;;;;;;5053128;28;20028;-76
2023/11/06 07:34:39;;;;;;;14.48;3.28;;;10.70;76.20;;;;;;5053534;28;20075;-76
2023/11/06 07:37:05;;;;;;;14.50;3.03;;;10.90;71.00;;;;;;5053181;28;20041;-78
2023/11/06 07:39:31;;;;;;;15.88;3.28;;;11.40;27.30;;;;;;5050292;28;20036;-78
2023/11/06 07:41:57;;;;;;;16.50;3.05;;;11.50;12.90;;;;;;5051713;28;20093;-77
2023/11/06 07:44:23;;;;;;;21.60;3.50;;;11.50;15.50;;;;;;5052278;28;20112;-77
2023/11/06 07:46:49;;;;;;;16.92;3.20;;;11.40;17.30;;;;;;5053046;28;20083;-77
2023/11/06 07:49:14;;;;;;;13.80;3.28;;;11.30;15.90;;;;;;5051625;28;20056;-77
2023/11/06 07:51:40;;;;;;;15.93;3.40;;;11.60;1.90;;;;;;5052477;28;20120;-77
2023/11/06 07:54:07;;;;;;;17.05;3.17;;;11.60;1.00;;;;;;5052274;28;20032;-77
2023/11/06 07:56:32;;;;;;;15.95;3.80;;;11.40;8.40;;;;;;5052869;28;20120;-77
2023/11/06 07:59:02;;;;;;;21.70;3.90;;;11.10;21.10;;;;;;5053665;28;20071;-76
2023/11/06 08:01:28;;;;;;;9.98;2.40;;;11.10;28.60;;;;;;5053035;28;20128;-77
2023/11/06 08:03:53;;;;;;;15.55;3.03;;;11.10;32.00;;;;;;5053307;28;20071;-77
2023/11/06 08:06:19;;;;;;;13.02;3.50;;;11.10;30.70;;;;;;5053093;28;20017;-77
2023/11/06 08:08:45;;;;;;;15.07;2.83;;;11.00;28.70;;;;;;5052530;28;20494;-75
2023/11/06 08:11:11;;;;;;;13.07;3.10;;;11.00;23.00;;;;;;5052988;28;20128;-77
2023/11/06 08:13:36;;;;;;;12.93;3.15;;;11.00;20.60;;;;;;5052747;28;20372;-78
2023/11/06 08:16:05;;;;;;;19.45;3.50;;;11.10;24.60;;;;;;5054887;28;20083;-76
2023/11/06 08:18:31;;;;;;;18.42;3.50;;;11.00;19.00;;;;;;5056329;28;20120;-76
2023/11/06 08:20:56;;;;;;;19.88;3.92;;;11.10;25.90;;;;;;5056856;28;20072;-78
2023/11/06 08:23:22;;;;;;;17.95;3.33;;;11.10;18.80;;;;;;5056220;28;20029;-76
2023/11/06 08:25:47;;;;;;;15.57;3.17;;;11.20;10.10;;;;;;5056934;28;20025;-79
2023/11/06 08:28:13;;;;;;;14.85;3.13;;;11.20;1.00;;;;;;5056291;28;20033;-76
2023/11/06 08:30:38;;;;;;;18.13;3.45;;;11.40;1.00;;;;;;5056808;28;20041;-80
2023/11/06 08:33:04;;;;;;;11.98;3.38;;;11.40;1.00;;;;;;5056577;28;20025;-80
2023/11/06 08:35:30;;;;;;;16.63;3.30;;;11.30;1.00;;;;;;5056663;28;20052;-78
2023/11/06 08:37:55;;;;;;;14.50;2.90;;;11.30;1.00;;;;;;5056466;28;20032;-80
2023/11/06 08:40:22;;;;;;;17.40;3.78;;;11.40;1.00;;;;;;5056918;28;20382;-80
2023/11/06 08:42:48;;;;;;;15.20;3.03;;;11.30;1.00;;;;;;5056149;28;20025;-79
2023/11/06 08:45:13;;;;;;;16.02;3.38;;;11.30;1.00;;;;;;5055888;28;20051;-83
2023/11/06 08:47:39;;;;;;;16.70;3.20;;;11.40;1.00;;;;;;5055933;28;20565;-82
2023/11/06 08:50:06;;;;;;;9.82;2.42;;;11.50;1.00;;;;;;5056543;28;20025;-81
2023/11/06 08:52:32;;;;;;;12.43;2.85;;;11.50;1.00;;;;;;5056449;28;20021;-81
2023/11/06 08:54:58;;;;;;;22.45;3.40;;;11.70;1.00;;;;;;5056105;28;20048;-80
2023/11/06 08:57:23;;;;;;;16.45;3.20;;;11.60;1.00;;;;;;5054365;28;20025;-83
2023/11/06 08:59:50;;;;;;;13.70;2.90;;;11.50;1.00;;;;;;5053575;28;20021;-79
2023/11/06 09:02:15;;;;;;;12.90;3.10;;;11.50;1.00;;;;;;5053159;28;20028;-84
2023/11/06 09:04:42;;;;;;;14.70;3.13;;;11.40;1.00;;;;;;5055509;28;20052;-82
2023/11/06 09:07:09;;;;;;;14.23;3.53;;;11.40;1.00;;;;;;5055992;28;20036;-81
2023/11/06 09:09:35;;;;;;;14.68;2.95;;;11.40;1.00;;;;;;5056284;28;20112;-80
2023/11/06 09:12:01;;;;;;;13.90;2.88;;;11.40;1.00;;;;;;5055541;28;20037;-79
2023/11/06 09:14:26;;;;;;;16.55;3.13;;;11.40;1.00;;;;;;5054690;28;20032;-79
2023/11/06 09:16:52;;;;;;;11.70;2.83;;;11.40;1.00;;;;;;5055607;28;20029;-79
2023/11/06 09:19:17;;;;;;;11.30;2.97;;;11.40;1.00;;;;;;5055806;28;20394;-81
2023/11/06 09:21:43;;;;;;;13.60;3.70;;;11.40;1.00;;;;;;5055078;28;20031;-79
2023/11/06 09:24:09;;;;;;;10.48;2.80;;;11.50;1.00;;;;;;5055684;28;20112;-81
2023/11/06 09:26:35;;;;;;;11.50;2.95;;;11.50;1.00;;;;;;5055048;28;20505;-81
2023/11/06 09:29:01;;;;;;;11.68;2.65;;;11.50;1.00;;;;;;5055266;28;20033;-82
2023/11/06 09:31:28;;;;;;;17.50;3.33;;;11.60;1.00;;;;;;5055858;28;20029;-82
2023/11/06 09:33:54;;;;;;;8.70;2.20;;;11.70;1.00;;;;;;5055653;28;20115;-81
2023/11/06 09:36:20;;;;;;;12.98;2.22;;;12.30;99.90;;;;;;5054883;28;20585;-80
2023/11/06 09:38:45;;;;;;;9.77;2.50;;;12.20;99.90;;;;;;5055278;28;20029;-81
2023/11/06 09:41:12;;;;;;;12.40;2.90;;;12.00;99.90;;;;;;5055889;28;20036;-82
2023/11/06 09:43:40;;;;;;;14.38;2.78;;;12.00;99.90;;;;;;5055492;28;20437;-81
2023/11/06 09:46:09;;;;;;;9.10;2.30;;;12.10;99.90;;;;;;5055184;28;20455;-80
2023/11/06 09:48:35;;;;;;;10.30;2.35;;;12.10;99.90;;;;;;5055371;28;20025;-79
2023/11/06 09:51:08;;;;;;;11.57;2.47;;;12.20;99.90;;;;;;5055520;28;20032;-82
2023/11/06 09:53:34;;;;;;;15.32;3.03;;;12.10;99.90;;;;;;5055580;28;20475;-80
2023/11/06 09:56:01;;;;;;;13.35;3.13;;;12.00;99.90;;;;;;5054355;28;20384;-80
2023/11/06 09:58:26;;;;;;;12.98;2.60;;;12.00;99.90;;;;;;5054134;28;20028;-80
2023/11/06 10:00:52;;;;;;;13.48;3.08;;;11.80;99.90;;;;;;5054821;28;20029;-81
2023/11/06 10:03:17;;;;;;;15.35;2.88;;;11.90;99.90;;;;;;5054921;28;20446;-78
2023/11/06 10:05:43;;;;;;;21.98;3.05;;;11.80;99.90;;;;;;5054435;28;20033;-81
2023/11/06 10:08:09;;;;;;;14.88;2.80;;;12.30;99.90;;;;;;5055240;28;20033;-82
2023/11/06 10:10:35;;;;;;;12.98;3.03;;;12.50;99.90;;;;;;5054905;28;20106;-79
2023/11/06 10:13:05;;;;;;;11.95;2.33;;;12.50;99.90;;;;;;5053570;28;20106;-78
2023/11/06 10:15:32;;;;;;;14.52;3.42;;;12.40;99.90;;;;;;5054886;28;20040;-89
2023/11/06 10:18:16;;;;;;;10.80;2.70;;;12.50;99.90;;;;;;5054165;28;20498;-82
2023/11/06 10:20:48;;;;;;;12.15;3.30;;;12.40;99.90;;;;;;5054608;28;20033;-81
2023/11/06 10:23:23;;;;;;;21.80;3.10;;;12.20;99.90;;;;;;5053018;28;20098;-81
2023/11/06 10:25:49;;;;;;;9.82;2.30;;;12.30;99.90;;;;;;5055325;28;20031;-82
2023/11/06 10:28:17;;;;;;;14.40;3.08;;;12.40;99.90;;;;;;5055863;28;20115;-85
2023/11/06 10:30:53;;;;;;;13.70;2.40;;;12.40;99.90;;;;;;5055298;28;20028;-86
2023/11/06 10:33:21;;;;;;;13.52;2.10;;;12.40;23.60;;;;;;5054644;28;20467;-82
2023/11/06 10:35:47;;;;;;;10.80;2.22;;;12.50;99.90;;;;;;5054424;28;20078;-82
2023/11/06 10:38:33;;;;;;;11.43;2.78;;;12.40;1.00;;;;;;5053376;28;20025;-80
2023/11/06 10:41:14;;;;;;;11.55;2.47;;;12.50;99.90;;;;;;5054451;28;20464;-81
2023/11/06 10:43:41;;;;;;;9.75;2.00;;;13.00;99.90;;;;;;5057668;28;20025;-82
2023/11/06 10:46:10;;;;;;;9.98;2.10;;;14.10;99.90;;;;;;5062982;28;20048;-88
2023/11/06 10:48:44;;;;;;;9.77;2.45;;;13.80;99.90;;;;;;5062067;28;20033;-84
2023/11/06 10:51:13;;;;;;;7.50;1.85;;;13.80;99.90;;;;;;5054190;28;20609;-81
2023/11/06 10:53:40;;;;;;;9.90;2.30;;;13.60;99.90;;;;;;5054843;28;20509;-88
2023/11/06 10:56:08;;;;;;;15.25;2.72;;;13.40;99.90;;;;;;5054926;28;20526;-87
2023/11/06 10:58:36;;;;;;;12.27;1.95;;;13.30;1.00;;;;;;5056770;28;20094;-85
2023/11/06 11:01:05;;;;;;;9.32;2.28;;;13.10;1.00;;;;;;5054486;28;20027;-83
2023/11/06 11:03:31;;;;;;;15.05;2.38;;;13.10;1.00;;;;;;5054550;28;20029;-82
2023/11/06 11:05:58;;;;;;;6.25;1.98;;;13.10;99.90;;;;;;5054991;28;20027;-86
2023/11/06 11:08:25;;;;;;;12.32;2.08;;;12.90;10.60;;;;;;5054421;28;20051;-82
2023/11/06 11:10:53;;;;;;;10.20;1.95;;;12.80;1.00;;;;;;5055261;28;20033;-83
2023/11/06 11:13:19;;;;;;;12.65;2.50;;;12.80;1.00;;;;;;5053620;28;20032;-82
2023/11/06 11:15:44;;;;;;;13.15;2.22;;;13.00;1.00;;;;;;5054026;28;20036;-83
2023/11/06 11:18:10;;;;;;;11.15;2.28;;;12.90;1.00;;;;;;5054092;28;20032;-80
2023/11/06 11:20:58;;;;;;;7.60;1.77;;;12.70;99.90;;;;;;5054596;28;20021;-89
2023/11/06 11:23:46;;;;;;;11.05;2.50;;;12.80;1.00;;;;;;5056762;28;20040;-82
2023/11/06 11:26:14;;;;;;;9.85;2.83;;;12.90;99.90;;;;;;5046861;28;20067;-86
2023/11/06 11:29:09;;;;;;;11.15;2.30;;;12.70;99.90;;;;;;5058583;28;20039;-86
2023/11/06 11:31:37;;;;;;;14.13;2.05;;;13.00;99.90;;;;;;5054483;28;20112;-87
2023/11/06 11:34:03;;;;;;;12.07;2.17;;;12.70;99.90;;;;;;5054003;28;20121;-88
2023/11/06 11:36:32;;;;;;;8.52;2.00;;;12.70;1.00;;;;;;5054263;28;20032;-85
2023/11/06 11:38:59;;;;;;;10.75;2.58;;;12.60;1.00;;;;;;5053881;28;20032;-85
2023/11/06 11:41:26;;;;;;;12.80;2.42;;;12.60;1.00;;;;;;5054223;28;20088;-86
2023/11/06 11:44:06;;;;;;;12.52;2.20;;;12.70;99.90;;;;;;5053937;28;20017;-87
2023/11/06 11:46:53;;;;;;;8.88;1.92;;;12.60;67.00;;;;;;5054308;28;20040;-84
2023/11/06 11:49:42;;;;;;;13.18;2.30;;;12.70;99.90;;;;;;5054339;28;20185;-85
2023/11/06 11:52:09;;;;;;;10.10;2.33;;;12.60;99.90;;;;;;5057681;28;20106;-88
2023/11/06 11:54:37;;;;;;;13.65;2.25;;;12.50;99.90;;;;;;5057720;28;20090;-83
2023/11/06 11:57:04;;;;;;;10.02;1.92;;;12.60;99.90;;;;;;5056080;28;20112;-85
2023/11/06 11:59:41;;;;;;;10.70;2.17;;;12.60;99.90;;;;;;5058052;28;20037;-87
2023/11/06 12:02:31;;;;;;;11.43;2.63;;;12.40;99.90;;;;;;5057406;28;20024;-84
2023/11/06 12:04:59;;;;;;;13.40;2.33;;;12.50;99.90;;;;;;5050442;28;20029;-82
2023/11/06 12:07:28;;;;;;;9.57;2.08;;;12.50;99.90;;;;;;5056729;28;20533;-84
2023/11/06 12:09:55;;;;;;;12.98;2.38;;;12.50;99.90;;;;;;5059051;28;20067;-87
2023/11/06 12:12:23;;;;;;;10.40;2.55;;;12.40;25.70;;;;;;5058500;28;20056;-85
2023/11/06 12:14:50;;;;;;;10.00;2.60;;;12.50;99.90;;;;;;5057938;28;20450;-85
2023/11/06 12:17:33;;;;;;;11.48;2.55;;;12.40;99.90;;;;;;5057670;28;20408;-82
2023/11/06 12:20:00;;;;;;;17.75;2.92;;;12.50;99.90;;;;;;5058449;28;20021;-87
2023/11/06 12:22:28;;;;;;;14.88;2.38;;;12.80;99.90;;;;;;5058609;28;20037;-85
2023/11/06 12:24:55;;;;;;;16.77;3.15;;;12.50;78.20;;;;;;5056346;28;20041;-82
2023/11/06 12:27:31;;;;;;;9.07;2.63;;;12.70;1.00;;;;;;5056471;28;20028;-82
2023/11/06 12:30:06;;;;;;;11.32;2.25;;;12.80;99.90;;;;;;5056438;28;20052;-81
2023/11/06 12:32:34;;;;;;;10.38;1.98;;;12.60;1.00;;;;;;5056367;28;20467;-85
2023/11/06 12:35:03;;;;;;;13.40;2.67;;;12.60;99.90;;;;;;5057957;28;20075;-85
2023/11/06 12:37:30;;;;;;;8.57;1.90;;;12.90;99.90;;;;;;5057713;28;20375;-87
2023/11/06 12:40:13;;;;;;;9.52;2.30;;;12.70;1.00;;;;;;5055132;28;20029;-87
2023/11/06 12:42:40;;;;;;;10.63;2.25;;;12.70;1.00;;;;;;5057300;28;20445;-83
2023/11/06 12:45:24;;;;;;;15.00;2.47;;;12.80;1.00;;;;;;5056219;28;20064;-86